sensor_id;sensor_type;location;lat;lon;timestamp;temperature;humidity
843;DHT22;407;48.884;9.126;2022-09-30T00:01:41;9.20;99.90
843;DHT22;407;48.884;9.126;2022-09-30T00:04:11;9.10;99.90
843;DHT22;407;48.884;9.126;2022-09-30T00:06:37;9.10;99.90
843;DHT22;407;48.884;9.126;2022-09-30T00:09:03;9.10;99.90
843;DHT22;407;48.884;9.126;2022-09-30T00:11:31;9.20;99.90
843;DHT22;407;48.884;9.126;2022-09-30T00:13:58;9.20;99.90
843;DHT22;407;48.884;9.126;2022-09-30T00:16:28;9.20;99.90
843;DHT22;407;48.884;9.126;2022-09-30T00:18:55;9.20;99.90
843;DHT22;407;48.884;9.126;2022-09-30T00:21:21;9.20;99.90
843;DHT22;407;48.884;9.126;2022-09-30T00:23:47;9.20;99.90
843;DHT22;407;48.884;9.126;2022-09-30T00:26:15;10.70;99.90
843;DHT22;407;48.884;9.126;2022-09-30T00:28:42;9.20;99.90
843;DHT22;407;48.884;9.126;2022-09-30T00:31:11;9.20;99.90
843;DHT22;407;48.884;9.126;2022-09-30T00:33:38;9.20;99.90
843;DHT22;407;48.884;9.126;2022-09-30T00:36:03;9.20;99.90
843;DHT22;407;48.884;9.126;2022-09-30T00:38:29;9.20;99.90
843;DHT22;407;48.884;9.126;2022-09-30T00:40:55;10.50;99.90
843;DHT22;407;48.884;9.126;2022-09-30T00:46:05;9.30;99.90
843;DHT22;407;48.884;9.126;2022-09-30T00:48:36;9.20;99.90
843;DHT22;407;48.884;9.126;2022-09-30T00:51:04;9.10;99.90
843;DHT22;407;48.884;9.126;2022-09-30T00:53:38;9.10;99.90
843;DHT22;407;48.884;9.126;2022-09-30T00:56:11;10.20;99.90
843;DHT22;407;48.884;9.126;2022-09-30T00:58:54;8.90;99.90
843;DHT22;407;48.884;9.126;2022-09-30T01:01:22;8.90;99.90
843;DHT22;407;48.884;9.126;2022-09-30T01:03:55;9.00;99.90
843;DHT22;407;48.884;9.126;2022-09-30T01:06:22;9.10;99.90
843;DHT22;407;48.884;9.126;2022-09-30T01:08:48;9.10;99.90
843;DHT22;407;48.884;9.126;2022-09-30T01:11:15;9.10;99.90
843;DHT22;407;48.884;9.126;2022-09-30T01:13:42;9.10;99.90
843;DHT22;407;48.884;9.126;2022-09-30T01:41:06;9.40;99.90
843;DHT22;407;48.884;9.126;2022-09-30T01:44:01;10.90;99.90
843;DHT22;407;48.884;9.126;2022-09-30T01:46:40;9.60;99.90
843;DHT22;407;48.884;9.126;2022-09-30T01:49:33;9.90;99.90
843;DHT22;407;48.884;9.126;2022-09-30T01:54:46;10.90;99.90
843;DHT22;407;48.884;9.126;2022-09-30T02:00:04;9.60;99.90
843;DHT22;407;48.884;9.126;2022-09-30T02:05:19;9.60;99.90
843;DHT22;407;48.884;9.126;2022-09-30T02:07:54;9.60;99.90
843;DHT22;407;48.884;9.126;2022-09-30T02:10:27;9.70;99.90
843;DHT22;407;48.884;9.126;2022-09-30T02:13:15;10.80;99.90
843;DHT22;407;48.884;9.126;2022-09-30T02:15:51;9.80;99.90
843;DHT22;407;48.884;9.126;2022-09-30T02:18:28;9.70;99.90
843;DHT22;407;48.884;9.126;2022-09-30T02:21:00;9.80;99.90
843;DHT22;407;48.884;9.126;2022-09-30T02:23:28;9.80;99.90
843;DHT22;407;48.884;9.126;2022-09-30T02:26:06;9.80;99.90
843;DHT22;407;48.884;9.126;2022-09-30T02:28:37;9.80;99.90
843;DHT22;407;48.884;9.126;2022-09-30T02:31:04;9.80;99.90
843;DHT22;407;48.884;9.126;2022-09-30T02:33:37;9.80;99.90
843;DHT22;407;48.884;9.126;2022-09-30T02:36:09;9.80;99.90
843;DHT22;407;48.884;9.126;2022-09-30T02:38:43;9.80;99.90
843;DHT22;407;48.884;9.126;2022-09-30T02:41:13;9.80;99.90
843;DHT22;407;48.884;9.126;2022-09-30T02:43:41;9.80;99.90
843;DHT22;407;48.884;9.126;2022-09-30T02:48:48;9.80;99.90
843;DHT22;407;48.884;9.126;2022-09-30T02:51:52;9.80;99.90
843;DHT22;407;48.884;9.126;2022-09-30T02:54:34;9.70;99.90
843;DHT22;407;48.884;9.126;2022-09-30T02:57:18;9.60;99.90
843;DHT22;407;48.884;9.126;2022-09-30T02:59:50;9.50;99.90
843;DHT22;407;48.884;9.126;2022-09-30T03:02:18;9.40;99.90
843;DHT22;407;48.884;9.126;2022-09-30T03:04:45;9.40;99.90
843;DHT22;407;48.884;9.126;2022-09-30T03:07:12;9.40;99.90
843;DHT22;407;48.884;9.126;2022-09-30T03:09:38;9.40;99.90
843;DHT22;407;48.884;9.126;2022-09-30T03:17:31;9.30;99.90
843;DHT22;407;48.884;9.126;2022-09-30T03:23:29;9.30;99.90
843;DHT22;407;48.884;9.126;2022-09-30T03:29:00;9.10;99.90
843;DHT22;407;48.884;9.126;2022-09-30T03:34:29;9.10;99.90
843;DHT22;407;48.884;9.126;2022-09-30T03:37:15;9.10;99.90
843;DHT22;407;48.884;9.126;2022-09-30T03:39:49;9.20;99.90
843;DHT22;407;48.884;9.126;2022-09-30T03:42:32;9.20;99.90
843;DHT22;407;48.884;9.126;2022-09-30T03:45:04;9.20;99.90
843;DHT22;407;48.884;9.126;2022-09-30T03:47:35;10.20;99.90
843;DHT22;407;48.884;9.126;2022-09-30T03:50:07;9.10;99.90
843;DHT22;407;48.884;9.126;2022-09-30T03:52:34;9.10;99.90
843;DHT22;407;48.884;9.126;2022-09-30T03:55:03;8.90;99.90
843;DHT22;407;48.884;9.126;2022-09-30T03:57:29;8.90;99.90
843;DHT22;407;48.884;9.126;2022-09-30T03:59:56;9.90;99.90
843;DHT22;407;48.884;9.126;2022-09-30T04:02:22;8.80;99.90
843;DHT22;407;48.884;9.126;2022-09-30T04:04:48;8.80;99.90
843;DHT22;407;48.884;9.126;2022-09-30T04:07:14;8.90;99.90
843;DHT22;407;48.884;9.126;2022-09-30T04:09:39;8.90;99.90
843;DHT22;407;48.884;9.126;2022-09-30T04:12:06;8.90;99.90
843;DHT22;407;48.884;9.126;2022-09-30T04:14:32;8.90;99.90
843;DHT22;407;48.884;9.126;2022-09-30T04:16:58;9.00;99.90
843;DHT22;407;48.884;9.126;2022-09-30T04:19:24;9.40;99.90
843;DHT22;407;48.884;9.126;2022-09-30T04:21:51;10.70;99.90
843;DHT22;407;48.884;9.126;2022-09-30T04:24:18;9.00;99.90
843;DHT22;407;48.884;9.126;2022-09-30T04:26:43;9.00;99.90
843;DHT22;407;48.884;9.126;2022-09-30T04:29:09;8.90;99.90
843;DHT22;407;48.884;9.126;2022-09-30T04:31:35;8.80;99.90
843;DHT22;407;48.884;9.126;2022-09-30T04:34:00;8.80;99.90
843;DHT22;407;48.884;9.126;2022-09-30T04:36:26;8.70;99.90
843;DHT22;407;48.884;9.126;2022-09-30T04:38:51;10.00;99.90
843;DHT22;407;48.884;9.126;2022-09-30T04:41:18;8.70;99.90
843;DHT22;407;48.884;9.126;2022-09-30T04:43:45;9.40;99.90
843;DHT22;407;48.884;9.126;2022-09-30T04:46:19;8.70;99.90
843;DHT22;407;48.884;9.126;2022-09-30T04:48:46;8.70;99.90
843;DHT22;407;48.884;9.126;2022-09-30T04:51:13;8.70;99.90
843;DHT22;407;48.884;9.126;2022-09-30T04:53:39;8.70;99.90
843;DHT22;407;48.884;9.126;2022-09-30T04:56:06;8.60;99.90
843;DHT22;407;48.884;9.126;2022-09-30T04:58:32;8.60;99.90
843;DHT22;407;48.884;9.126;2022-09-30T05:01:06;8.50;99.90
843;DHT22;407;48.884;9.126;2022-09-30T05:03:33;8.70;99.90
843;DHT22;407;48.884;9.126;2022-09-30T05:05:58;8.60;99.90
843;DHT22;407;48.884;9.126;2022-09-30T05:08:24;9.80;99.90
843;DHT22;407;48.884;9.126;2022-09-30T05:10:57;9.30;99.90
843;DHT22;407;48.884;9.126;2022-09-30T05:13:33;8.50;99.90
843;DHT22;407;48.884;9.126;2022-09-30T05:16:00;8.50;99.90
843;DHT22;407;48.884;9.126;2022-09-30T05:18:26;8.60;99.90
843;DHT22;407;48.884;9.126;2022-09-30T05:20:53;8.70;99.90
843;DHT22;407;48.884;9.126;2022-09-30T05:23:19;8.80;99.90
843;DHT22;407;48.884;9.126;2022-09-30T05:25:46;8.90;99.90
843;DHT22;407;48.884;9.126;2022-09-30T05:28:12;9.30;99.90
843;DHT22;407;48.884;9.126;2022-09-30T05:30:39;8.90;99.90
843;DHT22;407;48.884;9.126;2022-09-30T05:33:07;8.80;99.90
843;DHT22;407;48.884;9.126;2022-09-30T05:35:33;8.90;99.90
843;DHT22;407;48.884;9.126;2022-09-30T05:37:59;8.90;99.90
843;DHT22;407;48.884;9.126;2022-09-30T05:40:25;9.00;99.90
843;DHT22;407;48.884;9.126;2022-09-30T05:42:51;8.90;99.90
843;DHT22;407;48.884;9.126;2022-09-30T05:45:17;9.00;99.90
843;DHT22;407;48.884;9.126;2022-09-30T05:47:42;9.10;99.90
843;DHT22;407;48.884;9.126;2022-09-30T05:50:08;9.10;99.90
843;DHT22;407;48.884;9.126;2022-09-30T05:52:34;9.20;99.90
843;DHT22;407;48.884;9.126;2022-09-30T05:54:59;11.10;99.90
843;DHT22;407;48.884;9.126;2022-09-30T05:57:28;10.30;99.90
843;DHT22;407;48.884;9.126;2022-09-30T05:59:55;11.00;99.90
843;DHT22;407;48.884;9.126;2022-09-30T06:02:22;11.80;99.90
843;DHT22;407;48.884;9.126;2022-09-30T06:04:48;12.70;3.50
843;DHT22;407;48.884;9.126;2022-09-30T06:07:15;13.30;34.00
843;DHT22;407;48.884;9.126;2022-09-30T06:09:41;13.80;1.00
843;DHT22;407;48.884;9.126;2022-09-30T06:12:07;14.00;99.90
843;DHT22;407;48.884;9.126;2022-09-30T06:14:32;14.50;1.00
843;DHT22;407;48.884;9.126;2022-09-30T06:16:58;14.90;1.00
843;DHT22;407;48.884;9.126;2022-09-30T06:19:27;15.10;99.90
843;DHT22;407;48.884;9.126;2022-09-30T06:21:56;15.60;99.90
843;DHT22;407;48.884;9.126;2022-09-30T06:24:22;16.10;99.90
843;DHT22;407;48.884;9.126;2022-09-30T06:26:48;16.60;4.00
843;DHT22;407;48.884;9.126;2022-09-30T06:29:14;17.10;1.00
843;DHT22;407;48.884;9.126;2022-09-30T06:31:39;17.80;1.00
843;DHT22;407;48.884;9.126;2022-09-30T06:34:05;18.10;1.00
843;DHT22;407;48.884;9.126;2022-09-30T06:36:31;18.20;1.00
843;DHT22;407;48.884;9.126;2022-09-30T06:38:59;18.70;1.00
843;DHT22;407;48.884;9.126;2022-09-30T06:41:25;19.40;1.00
843;DHT22;407;48.884;9.126;2022-09-30T06:43:54;19.10;99.90
843;DHT22;407;48.884;9.126;2022-09-30T06:46:20;18.80;99.90
843;DHT22;407;48.884;9.126;2022-09-30T06:48:57;18.60;99.90
843;DHT22;407;48.884;9.126;2022-09-30T06:51:23;18.70;99.90
843;DHT22;407;48.884;9.126;2022-09-30T06:53:53;18.60;99.90
843;DHT22;407;48.884;9.126;2022-09-30T06:56:21;18.20;99.90
843;DHT22;407;48.884;9.126;2022-09-30T06:58:47;17.40;99.90
843;DHT22;407;48.884;9.126;2022-09-30T07:01:13;16.90;99.90
843;DHT22;407;48.884;9.126;2022-09-30T07:03:41;16.60;1.00
843;DHT22;407;48.884;9.126;2022-09-30T07:06:08;16.90;1.00
843;DHT22;407;48.884;9.126;2022-09-30T07:08:35;17.30;99.90
843;DHT22;407;48.884;9.126;2022-09-30T07:11:03;16.80;1.00
843;DHT22;407;48.884;9.126;2022-09-30T07:13:29;16.20;1.00
843;DHT22;407;48.884;9.126;2022-09-30T07:15:55;16.20;1.00
843;DHT22;407;48.884;9.126;2022-09-30T07:18:24;15.80;1.00
843;DHT22;407;48.884;9.126;2022-09-30T07:20:54;15.40;1.00
843;DHT22;407;48.884;9.126;2022-09-30T07:23:21;15.30;1.00
843;DHT22;407;48.884;9.126;2022-09-30T07:25:55;14.90;1.20
843;DHT22;407;48.884;9.126;2022-09-30T07:28:26;14.50;99.90
843;DHT22;407;48.884;9.126;2022-09-30T07:30:57;14.30;13.00
843;DHT22;407;48.884;9.126;2022-09-30T07:33:26;14.60;1.00
843;DHT22;407;48.884;9.126;2022-09-30T07:35:58;14.90;99.90
843;DHT22;407;48.884;9.126;2022-09-30T07:38:26;14.80;99.90
843;DHT22;407;48.884;9.126;2022-09-30T07:41:01;14.70;99.90
843;DHT22;407;48.884;9.126;2022-09-30T07:43:29;14.40;99.90
843;DHT22;407;48.884;9.126;2022-09-30T07:46:18;14.00;4.50
843;DHT22;407;48.884;9.126;2022-09-30T07:48:50;13.70;1.00
843;DHT22;407;48.884;9.126;2022-09-30T07:53:52;13.20;1.00
843;DHT22;407;48.884;9.126;2022-09-30T07:56:18;13.30;2.40
843;DHT22;407;48.884;9.126;2022-09-30T07:58:44;13.30;99.90
843;DHT22;407;48.884;9.126;2022-09-30T08:01:11;13.20;1.00
843;DHT22;407;48.884;9.126;2022-09-30T08:03:39;13.10;1.00
843;DHT22;407;48.884;9.126;2022-09-30T08:06:08;13.00;1.00
843;DHT22;407;48.884;9.126;2022-09-30T08:08:35;13.00;53.00
843;DHT22;407;48.884;9.126;2022-09-30T08:11:02;12.90;61.90
843;DHT22;407;48.884;9.126;2022-09-30T08:13:27;13.00;1.00
843;DHT22;407;48.884;9.126;2022-09-30T08:15:53;13.10;1.00
843;DHT22;407;48.884;9.126;2022-09-30T08:18:19;13.30;1.00
843;DHT22;407;48.884;9.126;2022-09-30T08:20:44;13.30;99.90
843;DHT22;407;48.884;9.126;2022-09-30T08:23:10;13.20;1.00
843;DHT22;407;48.884;9.126;2022-09-30T08:25:35;13.20;1.00
843;DHT22;407;48.884;9.126;2022-09-30T08:28:01;13.20;99.90
843;DHT22;407;48.884;9.126;2022-09-30T08:30:27;13.30;1.00
843;DHT22;407;48.884;9.126;2022-09-30T08:32:52;13.40;1.00
843;DHT22;407;48.884;9.126;2022-09-30T08:35:18;13.40;99.90
843;DHT22;407;48.884;9.126;2022-09-30T08:37:44;13.60;99.90
843;DHT22;407;48.884;9.126;2022-09-30T08:40:22;13.70;99.90
843;DHT22;407;48.884;9.126;2022-09-30T08:48:18;14.50;1.00
843;DHT22;407;48.884;9.126;2022-09-30T08:51:01;14.90;1.00
843;DHT22;407;48.884;9.126;2022-09-30T08:53:32;14.90;1.00
843;DHT22;407;48.884;9.126;2022-09-30T08:55:59;15.40;1.00
843;DHT22;407;48.884;9.126;2022-09-30T08:58:32;16.70;1.00
843;DHT22;407;48.884;9.126;2022-09-30T09:01:18;18.60;1.00
843;DHT22;407;48.884;9.126;2022-09-30T09:03:44;19.90;1.00
843;DHT22;407;48.884;9.126;2022-09-30T09:16:40;22.50;99.90
843;DHT22;407;48.884;9.126;2022-09-30T09:19:14;22.50;99.90
843;DHT22;407;48.884;9.126;2022-09-30T09:21:48;22.60;99.90
843;DHT22;407;48.884;9.126;2022-09-30T09:24:21;22.70;99.90
843;DHT22;407;48.884;9.126;2022-09-30T09:26:48;22.20;99.90
843;DHT22;407;48.884;9.126;2022-09-30T09:29:41;22.00;99.90
843;DHT22;407;48.884;9.126;2022-09-30T09:32:13;22.00;99.90
843;DHT22;407;48.884;9.126;2022-09-30T09:34:39;22.30;99.90
843;DHT22;407;48.884;9.126;2022-09-30T09:40:09;21.70;99.90
843;DHT22;407;48.884;9.126;2022-09-30T09:42:54;21.50;99.90
843;DHT22;407;48.884;9.126;2022-09-30T09:45:41;21.90;99.90
843;DHT22;407;48.884;9.126;2022-09-30T09:48:12;22.20;99.90
843;DHT22;407;48.884;9.126;2022-09-30T09:50:43;20.80;99.90
843;DHT22;407;48.884;9.126;2022-09-30T09:55:48;20.90;99.90
843;DHT22;407;48.884;9.126;2022-09-30T09:58:14;20.90;99.90
843;DHT22;407;48.884;9.126;2022-09-30T10:00:42;21.50;99.90
843;DHT22;407;48.884;9.126;2022-09-30T10:03:13;22.10;99.90
843;DHT22;407;48.884;9.126;2022-09-30T10:05:43;22.80;99.90
843;DHT22;407;48.884;9.126;2022-09-30T10:08:17;23.20;99.90
843;DHT22;407;48.884;9.126;2022-09-30T10:11:02;22.90;99.90
843;DHT22;407;48.884;9.126;2022-09-30T10:13:32;22.40;99.90
843;DHT22;407;48.884;9.126;2022-09-30T10:16:05;21.10;99.90
843;DHT22;407;48.884;9.126;2022-09-30T10:18:33;22.60;99.90
843;DHT22;407;48.884;9.126;2022-09-30T10:21:06;22.60;99.90
843;DHT22;407;48.884;9.126;2022-09-30T10:23:43;22.20;99.90
843;DHT22;407;48.884;9.126;2022-09-30T10:26:18;21.30;99.90
843;DHT22;407;48.884;9.126;2022-09-30T10:28:53;20.90;99.90
843;DHT22;407;48.884;9.126;2022-09-30T10:31:29;22.00;99.90
843;DHT22;407;48.884;9.126;2022-09-30T10:36:42;23.40;99.90
843;DHT22;407;48.884;9.126;2022-09-30T10:39:41;23.10;99.90
843;DHT22;407;48.884;9.126;2022-09-30T10:44:45;22.10;99.90
843;DHT22;407;48.884;9.126;2022-09-30T10:47:20;23.20;99.90
843;DHT22;407;48.884;9.126;2022-09-30T10:52:34;23.80;99.90
843;DHT22;407;48.884;9.126;2022-09-30T10:57:51;24.90;99.90
843;DHT22;407;48.884;9.126;2022-09-30T11:00:19;25.80;99.90
843;DHT22;407;48.884;9.126;2022-09-30T11:08:21;23.50;99.90
843;DHT22;407;48.884;9.126;2022-09-30T11:11:08;23.60;99.90
843;DHT22;407;48.884;9.126;2022-09-30T11:22:58;21.70;99.90
843;DHT22;407;48.884;9.126;2022-09-30T11:28:25;20.50;99.90
843;DHT22;407;48.884;9.126;2022-09-30T11:31:11;20.10;99.90
843;DHT22;407;48.884;9.126;2022-09-30T11:36:25;20.20;99.90
843;DHT22;407;48.884;9.126;2022-09-30T11:39:37;20.30;99.90
843;DHT22;407;48.884;9.126;2022-09-30T11:42:17;20.30;99.90
843;DHT22;407;48.884;9.126;2022-09-30T11:44:47;20.20;99.90
843;DHT22;407;48.884;9.126;2022-09-30T11:47:31;20.10;99.90
843;DHT22;407;48.884;9.126;2022-09-30T11:58:51;20.10;99.90
843;DHT22;407;48.884;9.126;2022-09-30T12:01:30;19.90;99.90
843;DHT22;407;48.884;9.126;2022-09-30T12:04:17;19.80;99.90
843;DHT22;407;48.884;9.126;2022-09-30T12:09:23;19.60;99.90
843;DHT22;407;48.884;9.126;2022-09-30T12:12:00;19.50;99.90
843;DHT22;407;48.884;9.126;2022-09-30T12:14:46;19.80;99.90
843;DHT22;407;48.884;9.126;2022-09-30T12:17:42;19.90;99.90
843;DHT22;407;48.884;9.126;2022-09-30T12:20:21;19.70;99.90
843;DHT22;407;48.884;9.126;2022-09-30T12:22:53;19.60;99.90
843;DHT22;407;48.884;9.126;2022-09-30T12:25:27;19.40;99.90
843;DHT22;407;48.884;9.126;2022-09-30T12:28:23;19.40;99.90
843;DHT22;407;48.884;9.126;2022-09-30T12:34:28;19.90;99.90
843;DHT22;407;48.884;9.126;2022-09-30T12:48:50;19.30;99.90
843;DHT22;407;48.884;9.126;2022-09-30T12:51:33;19.40;99.90
843;DHT22;407;48.884;9.126;2022-09-30T12:56:41;18.80;99.90
843;DHT22;407;48.884;9.126;2022-09-30T12:59:07;18.40;99.90
843;DHT22;407;48.884;9.126;2022-09-30T13:01:37;18.40;99.90
843;DHT22;407;48.884;9.126;2022-09-30T13:19:46;18.60;99.90
843;DHT22;407;48.884;9.126;2022-09-30T13:27:39;19.50;99.90
843;DHT22;407;48.884;9.126;2022-09-30T13:32:44;19.50;99.90
843;DHT22;407;48.884;9.126;2022-09-30T13:35:35;19.40;99.90
843;DHT22;407;48.884;9.126;2022-09-30T13:40:47;19.60;99.90
843;DHT22;407;48.884;9.126;2022-09-30T13:43:33;19.60;99.90
843;DHT22;407;48.884;9.126;2022-09-30T13:46:27;19.50;99.90
843;DHT22;407;48.884;9.126;2022-09-30T13:48:56;19.30;99.90
843;DHT22;407;48.884;9.126;2022-09-30T13:51:24;19.10;99.90
843;DHT22;407;48.884;9.126;2022-09-30T13:53:55;18.90;99.90
843;DHT22;407;48.884;9.126;2022-09-30T13:56:29;18.90;99.90
843;DHT22;407;48.884;9.126;2022-09-30T13:59:04;18.90;99.90
843;DHT22;407;48.884;9.126;2022-09-30T14:02:08;18.90;99.90
843;DHT22;407;48.884;9.126;2022-09-30T14:07:32;18.50;99.90
843;DHT22;407;48.884;9.126;2022-09-30T14:15:19;18.20;99.90
843;DHT22;407;48.884;9.126;2022-09-30T14:17:52;18.40;99.90
843;DHT22;407;48.884;9.126;2022-09-30T14:23:18;18.50;99.90
843;DHT22;407;48.884;9.126;2022-09-30T14:28:35;18.70;99.90
843;DHT22;407;48.884;9.126;2022-09-30T14:31:03;18.60;99.90
843;DHT22;407;48.884;9.126;2022-09-30T14:33:37;18.50;99.90
843;DHT22;407;48.884;9.126;2022-09-30T14:36:13;18.40;99.90
843;DHT22;407;48.884;9.126;2022-09-30T14:38:45;18.20;99.90
843;DHT22;407;48.884;9.126;2022-09-30T14:41:20;18.20;99.90
843;DHT22;407;48.884;9.126;2022-09-30T14:43:49;18.30;99.90
843;DHT22;407;48.884;9.126;2022-09-30T14:46:34;18.40;99.90
843;DHT22;407;48.884;9.126;2022-09-30T14:49:04;18.50;99.90
843;DHT22;407;48.884;9.126;2022-09-30T14:51:40;18.60;99.90
843;DHT22;407;48.884;9.126;2022-09-30T14:54:20;18.50;99.90
843;DHT22;407;48.884;9.126;2022-09-30T14:56:47;18.50;99.90
843;DHT22;407;48.884;9.126;2022-09-30T14:59:20;18.30;99.90
843;DHT22;407;48.884;9.126;2022-09-30T15:01:49;18.30;99.90
843;DHT22;407;48.884;9.126;2022-09-30T15:04:23;18.50;99.90
843;DHT22;407;48.884;9.126;2022-09-30T15:06:51;18.40;99.90
843;DHT22;407;48.884;9.126;2022-09-30T15:09:30;18.40;99.90
843;DHT22;407;48.884;9.126;2022-09-30T15:12:12;18.40;99.90
843;DHT22;407;48.884;9.126;2022-09-30T15:14:58;18.40;99.90
843;DHT22;407;48.884;9.126;2022-09-30T15:17:26;18.50;99.90
843;DHT22;407;48.884;9.126;2022-09-30T15:19:53;18.60;99.90
843;DHT22;407;48.884;9.126;2022-09-30T15:22:21;18.50;99.90
843;DHT22;407;48.884;9.126;2022-09-30T15:24:48;18.30;99.90
843;DHT22;407;48.884;9.126;2022-09-30T15:27:27;18.10;99.90
843;DHT22;407;48.884;9.126;2022-09-30T15:29:55;18.00;99.90
843;DHT22;407;48.884;9.126;2022-09-30T15:32:23;18.10;99.90
843;DHT22;407;48.884;9.126;2022-09-30T15:34:50;18.10;99.90
843;DHT22;407;48.884;9.126;2022-09-30T15:37:21;18.00;99.90
843;DHT22;407;48.884;9.126;2022-09-30T15:39:48;18.00;99.90
843;DHT22;407;48.884;9.126;2022-09-30T15:42:37;17.80;99.90
843;DHT22;407;48.884;9.126;2022-09-30T15:45:36;17.70;99.90
843;DHT22;407;48.884;9.126;2022-09-30T15:53:28;17.40;99.90
843;DHT22;407;48.884;9.126;2022-09-30T15:55:57;17.30;99.90
843;DHT22;407;48.884;9.126;2022-09-30T15:58:36;17.30;99.90
843;DHT22;407;48.884;9.126;2022-09-30T16:01:25;17.30;99.90
843;DHT22;407;48.884;9.126;2022-09-30T16:06:36;17.20;99.90
843;DHT22;407;48.884;9.126;2022-09-30T16:09:28;17.20;99.90
843;DHT22;407;48.884;9.126;2022-09-30T16:12:15;17.00;99.90
843;DHT22;407;48.884;9.126;2022-09-30T16:17:28;16.80;99.90
843;DHT22;407;48.884;9.126;2022-09-30T16:19:59;16.80;99.90
843;DHT22;407;48.884;9.126;2022-09-30T16:27:42;16.30;99.90
843;DHT22;407;48.884;9.126;2022-09-30T16:30:13;16.20;99.90
843;DHT22;407;48.884;9.126;2022-09-30T16:32:43;16.10;99.90
843;DHT22;407;48.884;9.126;2022-09-30T16:35:21;15.90;99.90
843;DHT22;407;48.884;9.126;2022-09-30T16:37:48;15.80;99.90
843;DHT22;407;48.884;9.126;2022-09-30T16:42:41;15.60;99.90
843;DHT22;407;48.884;9.126;2022-09-30T16:45:10;15.50;99.90
843;DHT22;407;48.884;9.126;2022-09-30T16:47:37;15.30;99.90
843;DHT22;407;48.884;9.126;2022-09-30T16:50:15;15.30;99.90
843;DHT22;407;48.884;9.126;2022-09-30T16:52:42;15.20;99.90
843;DHT22;407;48.884;9.126;2022-09-30T16:55:07;15.20;99.90
843;DHT22;407;48.884;9.126;2022-09-30T16:57:33;15.10;1.00
843;DHT22;407;48.884;9.126;2022-09-30T16:59:59;14.90;1.00
843;DHT22;407;48.884;9.126;2022-09-30T17:02:24;14.70;1.00
843;DHT22;407;48.884;9.126;2022-09-30T17:04:51;14.50;1.00
843;DHT22;407;48.884;9.126;2022-09-30T17:07:17;14.30;1.00
843;DHT22;407;48.884;9.126;2022-09-30T17:09:42;14.20;99.90
843;DHT22;407;48.884;9.126;2022-09-30T17:12:09;14.00;99.90
843;DHT22;407;48.884;9.126;2022-09-30T17:14:37;14.00;99.90
843;DHT22;407;48.884;9.126;2022-09-30T17:17:02;13.90;1.00
843;DHT22;407;48.884;9.126;2022-09-30T17:19:28;13.90;64.70
843;DHT22;407;48.884;9.126;2022-09-30T17:21:57;13.80;99.90
843;DHT22;407;48.884;9.126;2022-09-30T17:24:22;13.70;99.90
843;DHT22;407;48.884;9.126;2022-09-30T17:26:48;13.60;1.00
843;DHT22;407;48.884;9.126;2022-09-30T17:29:15;13.40;99.90
843;DHT22;407;48.884;9.126;2022-09-30T17:31:40;13.30;99.90
843;DHT22;407;48.884;9.126;2022-09-30T17:34:06;13.30;1.00
843;DHT22;407;48.884;9.126;2022-09-30T17:36:32;13.20;96.90
843;DHT22;407;48.884;9.126;2022-09-30T17:38:58;13.20;99.90
843;DHT22;407;48.884;9.126;2022-09-30T17:41:23;13.20;1.00
843;DHT22;407;48.884;9.126;2022-09-30T17:44:08;13.10;1.00
843;DHT22;407;48.884;9.126;2022-09-30T17:46:42;13.10;99.90
843;DHT22;407;48.884;9.126;2022-09-30T17:49:08;13.00;99.90
843;DHT22;407;48.884;9.126;2022-09-30T17:51:34;13.00;99.90
843;DHT22;407;48.884;9.126;2022-09-30T17:54:03;12.90;1.00
843;DHT22;407;48.884;9.126;2022-09-30T17:56:30;12.80;99.90
843;DHT22;407;48.884;9.126;2022-09-30T17:58:55;12.90;28.00
843;DHT22;407;48.884;9.126;2022-09-30T18:01:24;12.70;1.00
843;DHT22;407;48.884;9.126;2022-09-30T18:03:50;12.60;1.90
843;DHT22;407;48.884;9.126;2022-09-30T18:06:18;12.40;1.00
843;DHT22;407;48.884;9.126;2022-09-30T18:08:48;12.30;99.90
843;DHT22;407;48.884;9.126;2022-09-30T18:11:19;12.20;99.90
843;DHT22;407;48.884;9.126;2022-09-30T18:13:50;12.20;1.00
843;DHT22;407;48.884;9.126;2022-09-30T18:16:17;12.10;99.90
843;DHT22;407;48.884;9.126;2022-09-30T18:18:42;12.00;99.90
843;DHT22;407;48.884;9.126;2022-09-30T18:21:10;12.00;99.90
843;DHT22;407;48.884;9.126;2022-09-30T18:23:36;11.90;99.90
843;DHT22;407;48.884;9.126;2022-09-30T18:26:01;11.80;1.00
843;DHT22;407;48.884;9.126;2022-09-30T18:28:27;11.80;1.00
843;DHT22;407;48.884;9.126;2022-09-30T18:30:52;11.70;1.00
843;DHT22;407;48.884;9.126;2022-09-30T18:33:18;11.70;1.00
843;DHT22;407;48.884;9.126;2022-09-30T18:35:46;11.60;1.00
843;DHT22;407;48.884;9.126;2022-09-30T18:38:12;11.50;1.00
843;DHT22;407;48.884;9.126;2022-09-30T18:40:41;11.40;1.00
843;DHT22;407;48.884;9.126;2022-09-30T18:43:11;11.40;1.00
843;DHT22;407;48.884;9.126;2022-09-30T18:45:37;11.40;1.00
843;DHT22;407;48.884;9.126;2022-09-30T18:48:04;11.40;1.00
843;DHT22;407;48.884;9.126;2022-09-30T18:50:32;11.30;1.00
843;DHT22;407;48.884;9.126;2022-09-30T18:52:59;11.30;1.00
843;DHT22;407;48.884;9.126;2022-09-30T18:55:33;11.30;1.00
843;DHT22;407;48.884;9.126;2022-09-30T18:57:59;11.20;1.00
843;DHT22;407;48.884;9.126;2022-09-30T19:00:24;11.20;1.00
843;DHT22;407;48.884;9.126;2022-09-30T19:02:56;11.30;1.00
843;DHT22;407;48.884;9.126;2022-09-30T19:05:21;11.30;1.00
843;DHT22;407;48.884;9.126;2022-09-30T19:07:47;11.30;1.00
843;DHT22;407;48.884;9.126;2022-09-30T19:10:13;11.20;1.00
843;DHT22;407;48.884;9.126;2022-09-30T19:12:40;11.30;1.00
843;DHT22;407;48.884;9.126;2022-09-30T19:15:10;11.30;1.00
843;DHT22;407;48.884;9.126;2022-09-30T19:17:37;11.20;1.00
843;DHT22;407;48.884;9.126;2022-09-30T19:20:04;11.20;1.00
843;DHT22;407;48.884;9.126;2022-09-30T19:22:31;11.10;1.00
843;DHT22;407;48.884;9.126;2022-09-30T19:25:10;11.10;1.00
843;DHT22;407;48.884;9.126;2022-09-30T19:27:36;11.10;1.00
843;DHT22;407;48.884;9.126;2022-09-30T19:30:04;11.00;1.00
843;DHT22;407;48.884;9.126;2022-09-30T19:32:31;11.00;1.00
843;DHT22;407;48.884;9.126;2022-09-30T19:34:59;11.00;1.00
843;DHT22;407;48.884;9.126;2022-09-30T19:37:25;11.00;1.00
843;DHT22;407;48.884;9.126;2022-09-30T19:39:51;11.00;1.00
843;DHT22;407;48.884;9.126;2022-09-30T19:42:16;11.00;1.00
843;DHT22;407;48.884;9.126;2022-09-30T19:44:42;10.90;1.00
843;DHT22;407;48.884;9.126;2022-09-30T19:47:08;10.90;1.00
843;DHT22;407;48.884;9.126;2022-09-30T19:49:35;10.90;1.00
843;DHT22;407;48.884;9.126;2022-09-30T19:52:01;11.00;1.00
843;DHT22;407;48.884;9.126;2022-09-30T19:54:28;10.90;1.00
843;DHT22;407;48.884;9.126;2022-09-30T19:56:53;10.90;1.00
843;DHT22;407;48.884;9.126;2022-09-30T19:59:19;10.90;1.00
843;DHT22;407;48.884;9.126;2022-09-30T20:01:45;10.80;1.00
843;DHT22;407;48.884;9.126;2022-09-30T20:04:11;10.80;1.00
843;DHT22;407;48.884;9.126;2022-09-30T20:06:38;10.70;1.00
843;DHT22;407;48.884;9.126;2022-09-30T20:09:04;10.70;1.00
843;DHT22;407;48.884;9.126;2022-09-30T20:11:33;10.70;1.00
843;DHT22;407;48.884;9.126;2022-09-30T20:14:01;10.70;1.00
843;DHT22;407;48.884;9.126;2022-09-30T20:16:45;10.60;1.00
843;DHT22;407;48.884;9.126;2022-09-30T20:19:15;10.50;1.00
843;DHT22;407;48.884;9.126;2022-09-30T20:21:41;10.50;1.00
843;DHT22;407;48.884;9.126;2022-09-30T20:24:08;10.80;1.00